createdAt,value
2023-05-14T00:01:53.004Z,70.83
2023-05-14T00:04:19.949Z,69.51
2023-05-14T00:06:47.033Z,69.61
2023-05-14T00:09:13.838Z,69.39
2023-05-14T00:11:40.795Z,70.23
2023-05-14T00:14:07.681Z,70.52
2023-05-14T00:16:34.709Z,70.71
2023-05-14T00:19:01.662Z,71.58
2023-05-14T00:21:28.692Z,72.51
2023-05-14T00:23:55.605Z,72.91
2023-05-14T00:26:22.350Z,70.66
2023-05-14T00:28:49.295Z,70.60
2023-05-14T00:31:16.208Z,70.01
2023-05-14T00:33:43.017Z,70.36
2023-05-14T00:36:09.920Z,71.11
2023-05-14T00:38:36.775Z,71.02
2023-05-14T00:41:03.734Z,69.63
2023-05-14T00:43:30.575Z,69.02
2023-05-14T00:45:57.470Z,68.93
2023-05-14T00:48:25.119Z,69.89
2023-05-14T00:50:52.190Z,69.97
2023-05-14T00:53:22.020Z,69.46
2023-05-14T00:55:50.368Z,68.86
2023-05-14T00:58:18.764Z,68.73
2023-05-14T01:00:45.743Z,68.20
2023-05-14T01:03:12.644Z,67.76
2023-05-14T01:06:03.546Z,67.63
2023-05-14T01:08:59.416Z,68.91
2023-05-14T01:11:30.404Z,69.38
2023-05-14T01:14:32.257Z,70.77
2023-05-14T01:17:00.650Z,71.00
2023-05-14T01:19:41.962Z,71.14
2023-05-14T01:22:09.361Z,71.87
2023-05-14T01:24:36.252Z,73.52
2023-05-14T01:27:09.812Z,73.60
2023-05-14T01:29:42.098Z,73.47
2023-05-14T01:32:10.666Z,72.67
2023-05-14T01:34:39.802Z,72.84
2023-05-14T01:37:08.355Z,73.61
2023-05-14T01:39:37.750Z,71.07
2023-05-14T01:42:06.605Z,70.82
2023-05-14T01:44:33.807Z,70.20
2023-05-14T01:47:00.653Z,70.27
2023-05-14T01:49:27.586Z,70.27
2023-05-14T01:51:54.397Z,70.68
2023-05-14T01:54:21.385Z,70.73
2023-05-14T01:56:48.170Z,70.78
2023-05-14T01:59:14.996Z,72.26
2023-05-14T02:01:42.006Z,73.51
2023-05-14T02:04:08.913Z,71.77
2023-05-14T02:06:35.799Z,72.05
2023-05-14T02:09:02.977Z,71.72
2023-05-14T02:11:29.778Z,71.65
2023-05-14T02:13:56.658Z,70.99
2023-05-14T02:16:23.660Z,71.50
2023-05-14T02:18:50.581Z,72.12
2023-05-14T02:21:17.499Z,72.48
2023-05-14T02:23:44.364Z,71.68
2023-05-14T02:26:11.726Z,70.81
2023-05-14T02:28:38.643Z,71.99
2023-05-14T02:31:05.615Z,74.96
2023-05-14T02:33:32.573Z,74.64
2023-05-14T02:35:59.414Z,73.86
2023-05-14T02:38:26.938Z,72.84
2023-05-14T02:40:53.684Z,71.95
2023-05-14T02:43:20.508Z,71.71
2023-05-14T02:45:47.544Z,71.04
2023-05-14T02:48:14.438Z,70.51
2023-05-14T02:50:41.365Z,69.58
2023-05-14T02:53:08.302Z,69.86
2023-05-14T02:55:35.688Z,70.22
2023-05-14T02:58:02.506Z,70.42
2023-05-14T03:00:29.437Z,69.68
2023-05-14T03:02:56.655Z,69.31
2023-05-14T03:05:24.047Z,69.29
2023-05-14T03:07:52.244Z,68.99
2023-05-14T03:10:19.219Z,68.94
2023-05-14T03:12:46.145Z,68.87
2023-05-14T03:15:13.279Z,68.72
2023-05-14T03:17:40.113Z,68.70
2023-05-14T03:20:07.440Z,68.65
2023-05-14T03:22:34.580Z,68.91
2023-05-14T03:25:01.398Z,68.98
2023-05-14T03:27:28.237Z,70.88
2023-05-14T03:29:55.257Z,73.21
2023-05-14T03:32:22.132Z,73.86
2023-05-14T03:34:48.982Z,73.38
2023-05-14T03:37:16.163Z,72.57
2023-05-14T03:39:43.021Z,73.26
2023-05-14T03:42:09.801Z,73.69
2023-05-14T03:44:36.717Z,73.48
2023-05-14T03:47:03.611Z,74.37
2023-05-14T03:49:30.417Z,75.08
2023-05-14T03:51:57.360Z,77.09
2023-05-14T03:54:24.148Z,78.67
2023-05-14T03:56:50.968Z,79.67
2023-05-14T03:59:17.955Z,79.74
2023-05-14T04:01:44.888Z,79.65
2023-05-14T04:04:11.986Z,79.97
2023-05-14T04:06:39.211Z,80.58
2023-05-14T04:09:06.082Z,81.42
2023-05-14T04:11:32.929Z,79.61
2023-05-14T04:14:00.949Z,75.48
2023-05-14T04:16:27.803Z,74.77
2023-05-14T04:18:56.890Z,73.80
2023-05-14T04:21:23.948Z,73.46
2023-05-14T04:23:50.786Z,73.59
2023-05-14T04:26:17.552Z,73.23
2023-05-14T04:28:44.700Z,72.70
2023-05-14T04:31:11.560Z,71.37
2023-05-14T04:33:38.407Z,70.01
2023-05-14T04:36:05.631Z,69.97
2023-05-14T04:38:32.524Z,68.61
2023-05-14T04:40:59.338Z,68.50
2023-05-14T04:43:26.281Z,67.56
2023-05-14T04:45:53.319Z,66.89
2023-05-14T04:48:20.204Z,67.45
2023-05-14T04:50:47.127Z,67.28
2023-05-14T04:53:14.013Z,67.79
2023-05-14T04:55:41.072Z,66.51
2023-05-14T04:58:07.961Z,66.79
2023-05-14T05:00:34.939Z,67.27
2023-05-14T05:03:01.938Z,66.78
2023-05-14T05:05:28.929Z,65.77
2023-05-14T05:07:55.742Z,65.24
2023-05-14T05:10:22.986Z,65.53
2023-05-14T05:12:50.164Z,65.00
2023-05-14T05:15:17.004Z,64.79
2023-05-14T05:17:43.815Z,65.70
2023-05-14T05:20:11.434Z,66.32
2023-05-14T05:22:38.232Z,66.84
2023-05-14T05:25:05.454Z,65.88
2023-05-14T05:27:32.938Z,66.57
2023-05-14T05:30:02.120Z,65.51
2023-05-14T05:32:28.919Z,66.13
2023-05-14T05:34:57.210Z,65.76
2023-05-14T05:37:24.018Z,66.31
2023-05-14T05:39:50.816Z,65.21
2023-05-14T05:42:17.751Z,64.69
2023-05-14T05:44:44.739Z,64.03
2023-05-14T05:47:11.519Z,62.41
2023-05-14T05:49:38.397Z,62.19
2023-05-14T05:52:05.580Z,61.83
2023-05-14T05:54:32.463Z,62.19
2023-05-14T05:57:00.031Z,59.87
2023-05-14T05:59:26.973Z,58.03
2023-05-14T06:01:53.993Z,57.73
2023-05-14T06:04:20.940Z,59.33
2023-05-14T06:06:47.730Z,58.02
2023-05-14T06:09:14.593Z,58.37
2023-05-14T06:11:41.593Z,59.11
2023-05-14T06:14:08.470Z,58.74
2023-05-14T06:16:37.563Z,57.56
2023-05-14T06:19:04.655Z,58.04
2023-05-14T06:21:31.522Z,58.00
2023-05-14T06:23:58.348Z,57.33
2023-05-14T06:26:25.410Z,58.59
2023-05-14T06:28:52.574Z,58.42
2023-05-14T06:31:19.495Z,58.98
2023-05-14T06:33:46.698Z,57.27
2023-05-14T06:36:13.575Z,58.07
2023-05-14T06:38:43.370Z,58.93
2023-05-14T06:41:10.282Z,58.85
2023-05-14T06:43:39.766Z,55.41
2023-05-14T06:46:06.588Z,55.50
2023-05-14T06:48:33.467Z,55.57
2023-05-14T06:51:00.267Z,54.16
2023-05-14T06:53:27.082Z,53.11
2023-05-14T06:55:54.064Z,49.66
2023-05-14T06:58:20.898Z,48.93
2023-05-14T07:00:48.485Z,50.25
2023-05-14T07:03:15.400Z,50.43
2023-05-14T07:05:42.230Z,50.47
2023-05-14T07:08:09.099Z,48.56
2023-05-14T07:10:35.994Z,48.82
2023-05-14T07:13:02.792Z,51.56
2023-05-14T07:15:29.640Z,51.53
2023-05-14T07:17:56.870Z,51.40
2023-05-14T07:20:24.312Z,51.80
2023-05-14T07:22:52.885Z,51.03
2023-05-14T07:25:19.803Z,51.74
2023-05-14T07:27:46.700Z,50.54
2023-05-14T07:30:13.769Z,48.93
2023-05-14T07:32:41.026Z,49.45
2023-05-14T07:35:08.930Z,49.87
2023-05-14T07:37:35.857Z,50.62
2023-05-14T07:40:02.874Z,49.67
2023-05-14T07:42:36.548Z,49.67
2023-05-14T07:45:05.098Z,50.33
2023-05-14T07:47:32.360Z,49.98
2023-05-14T07:49:59.755Z,47.64
2023-05-14T07:52:26.774Z,48.38
2023-05-14T07:54:53.664Z,48.67
2023-05-14T07:57:20.525Z,48.59
2023-05-14T07:59:48.733Z,48.50
2023-05-14T08:02:16.202Z,48.45
2023-05-14T08:04:43.316Z,46.18
2023-05-14T08:07:10.286Z,46.90
2023-05-14T08:09:37.132Z,44.35
2023-05-14T08:12:04.291Z,44.74
2023-05-14T08:14:31.278Z,42.84
2023-05-14T08:16:58.237Z,44.82
2023-05-14T08:19:25.217Z,45.55
2023-05-14T08:21:52.013Z,45.83
2023-05-14T08:24:19.417Z,44.93
2023-05-14T08:26:46.255Z,44.14
2023-05-14T08:29:16.058Z,41.19
2023-05-14T08:31:43.476Z,41.48
2023-05-14T08:34:10.303Z,41.41
2023-05-14T08:36:37.582Z,42.83
2023-05-14T08:39:04.493Z,42.95
2023-05-14T08:41:31.877Z,42.44
2023-05-14T08:44:19.475Z,40.71
2023-05-14T08:46:49.986Z,41.56
2023-05-14T08:49:31.819Z,41.93
2023-05-14T08:52:00.066Z,41.69
2023-05-14T08:54:26.941Z,39.89
2023-05-14T08:56:54.196Z,41.61
2023-05-14T08:59:21.109Z,41.14
2023-05-14T09:01:49.353Z,41.05
2023-05-14T09:04:19.752Z,41.40
2023-05-14T09:06:50.001Z,40.97
2023-05-14T09:09:20.533Z,40.54
2023-05-14T09:11:48.860Z,40.05
2023-05-14T09:14:15.807Z,39.96
2023-05-14T09:16:45.732Z,39.62
2023-05-14T09:19:19.024Z,39.33
2023-05-14T09:21:47.988Z,39.97
2023-05-14T09:24:25.350Z,41.14
2023-05-14T09:26:56.884Z,37.35
2023-05-14T09:29:28.781Z,39.71
2023-05-14T09:31:59.651Z,39.19
2023-05-14T09:34:34.158Z,40.37
2023-05-14T09:37:04.416Z,39.73
2023-05-14T09:39:34.909Z,38.40
2023-05-14T09:42:01.766Z,39.39
2023-05-14T09:44:29.104Z,40.25
2023-05-14T09:46:58.793Z,39.30
2023-05-14T09:49:25.779Z,38.52
2023-05-14T09:51:52.827Z,38.61
2023-05-14T09:54:19.784Z,39.27
2023-05-14T09:56:46.699Z,37.81
2023-05-14T09:59:13.572Z,38.60
2023-05-14T10:01:42.887Z,40.00
2023-05-14T10:04:11.336Z,36.35
2023-05-14T10:06:39.686Z,34.16
2023-05-14T10:09:12.325Z,35.49
2023-05-14T10:11:44.123Z,35.98
2023-05-14T10:14:16.208Z,35.37
2023-05-14T10:16:47.391Z,34.61
2023-05-14T10:19:16.971Z,35.41
2023-05-14T10:21:48.476Z,32.91
2023-05-14T10:24:16.317Z,31.23
2023-05-14T10:26:43.530Z,32.77
2023-05-14T10:29:10.797Z,32.29
2023-05-14T10:31:51.286Z,30.36
2023-05-14T10:34:39.084Z,31.78
2023-05-14T10:37:08.907Z,29.73
2023-05-14T10:39:57.042Z,28.23
2023-05-14T10:42:27.186Z,30.04
2023-05-14T10:44:56.068Z,30.86
2023-05-14T10:47:23.188Z,30.57
2023-05-14T10:49:50.315Z,29.20
2023-05-14T10:52:19.135Z,28.70
2023-05-14T10:54:50.109Z,29.70
2023-05-14T10:57:19.122Z,30.80
2023-05-14T10:59:47.776Z,28.40
2023-05-14T11:02:26.653Z,28.89
2023-05-14T11:04:57.030Z,29.24
2023-05-14T11:07:32.171Z,27.76
2023-05-14T11:10:04.768Z,27.75
2023-05-14T11:12:32.660Z,28.42
2023-05-14T11:15:01.936Z,29.89
2023-05-14T11:17:30.024Z,30.47
2023-05-14T11:19:57.989Z,30.85
2023-05-14T11:22:25.369Z,32.87
2023-05-14T11:24:52.793Z,29.00
2023-05-14T11:27:21.747Z,26.95
2023-05-14T11:29:49.438Z,28.88
2023-05-14T11:32:17.122Z,27.29
2023-05-14T11:34:45.212Z,26.29
2023-05-14T11:37:13.575Z,25.22
2023-05-14T11:39:50.314Z,27.53
2023-05-14T11:42:17.260Z,26.49
2023-05-14T11:44:44.745Z,25.76
2023-05-14T11:47:12.404Z,25.60
2023-05-14T11:49:39.473Z,24.96
2023-05-14T11:52:08.621Z,27.22
2023-05-14T11:54:35.594Z,25.85
2023-05-14T11:57:08.035Z,27.28
2023-05-14T11:59:35.520Z,26.81
2023-05-14T12:02:03.234Z,26.76
2023-05-14T12:04:30.545Z,24.84
2023-05-14T12:07:00.029Z,24.35
2023-05-14T12:09:26.861Z,25.34
2023-05-14T12:11:53.811Z,25.52
2023-05-14T12:14:22.992Z,26.09
2023-05-14T12:16:50.976Z,26.43
2023-05-14T12:19:21.661Z,27.22
2023-05-14T12:21:49.086Z,26.04
2023-05-14T12:24:19.524Z,25.61
2023-05-14T12:26:48.528Z,26.42
2023-05-14T12:29:16.855Z,25.85
2023-05-14T12:31:48.796Z,24.91
2023-05-14T12:34:17.003Z,26.55
2023-05-14T12:36:44.484Z,27.36
2023-05-14T12:39:14.429Z,27.10
2023-05-14T12:41:43.434Z,28.49
2023-05-14T12:44:10.334Z,28.00
2023-05-14T12:46:37.791Z,28.92
2023-05-14T12:49:04.653Z,29.44
2023-05-14T12:51:31.460Z,29.05
2023-05-14T12:53:58.320Z,28.74
2023-05-14T12:56:25.139Z,27.47
2023-05-14T12:58:51.936Z,27.69
2023-05-14T13:01:18.908Z,28.71
2023-05-14T13:03:45.957Z,32.84
2023-05-14T13:06:12.932Z,33.57
2023-05-14T13:08:41.449Z,33.49
2023-05-14T13:11:09.353Z,34.59
2023-05-14T13:13:38.562Z,34.70
2023-05-14T13:16:07.907Z,34.22
2023-05-14T13:18:34.778Z,33.87
2023-05-14T13:21:02.000Z,32.90
2023-05-14T13:23:31.296Z,32.11
2023-05-14T13:25:58.176Z,31.37
2023-05-14T13:28:25.112Z,32.65
2023-05-14T13:31:09.098Z,31.82
2023-05-14T13:33:37.837Z,30.10
2023-05-14T13:36:05.574Z,29.42
2023-05-14T13:38:35.583Z,29.75
2023-05-14T13:41:02.764Z,27.31
2023-05-14T13:43:36.121Z,28.30
2023-05-14T13:46:04.980Z,26.39
2023-05-14T13:48:32.314Z,27.38
2023-05-14T13:50:59.572Z,27.47
2023-05-14T13:53:26.458Z,26.45
2023-05-14T13:55:53.427Z,27.19
2023-05-14T13:58:20.401Z,27.06
2023-05-14T14:00:47.326Z,27.67
2023-05-14T14:03:14.355Z,28.13
2023-05-14T14:05:41.298Z,27.60
2023-05-14T14:08:22.475Z,27.17
2023-05-14T14:10:51.237Z,26.77
2023-05-14T14:13:18.061Z,26.82
2023-05-14T14:15:45.027Z,27.65
2023-05-14T14:18:11.952Z,28.37
2023-05-14T14:20:38.903Z,28.44
2023-05-14T14:23:05.723Z,29.59
2023-05-14T14:25:32.625Z,29.36
2023-05-14T14:27:59.588Z,29.56
2023-05-14T14:30:26.613Z,29.94
2023-05-14T14:32:53.684Z,29.45
2023-05-14T14:35:20.692Z,29.82
2023-05-14T14:37:47.579Z,30.27
2023-05-14T14:40:14.753Z,30.33
2023-05-14T14:42:43.190Z,30.26
2023-05-14T14:45:10.441Z,30.48
2023-05-14T14:47:37.503Z,30.47
2023-05-14T14:50:04.890Z,30.88
2023-05-14T14:52:31.859Z,31.10
2023-05-14T14:54:58.772Z,31.50
2023-05-14T14:57:25.650Z,31.52
2023-05-14T14:59:52.564Z,31.80
2023-05-14T15:02:19.965Z,31.71
2023-05-14T15:04:46.934Z,31.94
2023-05-14T15:07:13.926Z,31.40
2023-05-14T15:09:40.943Z,31.87
2023-05-14T15:12:08.024Z,32.15
2023-05-14T15:14:35.158Z,31.87
2023-05-14T15:17:02.432Z,32.79
2023-05-14T15:19:29.902Z,32.43
2023-05-14T15:21:56.718Z,32.59
2023-05-14T15:24:23.907Z,32.90
2023-05-14T15:26:52.732Z,32.86
2023-05-14T15:29:20.345Z,33.34
2023-05-14T15:31:47.616Z,33.34
2023-05-14T15:34:14.552Z,33.56
2023-05-14T15:36:41.710Z,33.61
2023-05-14T15:39:08.714Z,33.56
2023-05-14T15:41:35.642Z,33.67
2023-05-14T15:44:02.741Z,33.65
2023-05-14T15:46:29.776Z,33.61
2023-05-14T15:48:56.805Z,33.62
2023-05-14T15:51:23.891Z,33.57
2023-05-14T15:53:52.763Z,33.37
2023-05-14T15:56:19.922Z,33.51
2023-05-14T15:58:46.891Z,33.23
2023-05-14T16:01:14.880Z,34.26
2023-05-14T16:03:42.054Z,34.22
2023-05-14T16:06:09.278Z,33.88
2023-05-14T16:08:36.392Z,33.40
2023-05-14T16:11:03.487Z,32.59
2023-05-14T16:13:30.428Z,33.07
2023-05-14T16:15:57.590Z,32.74
2023-05-14T16:18:24.536Z,33.05
2023-05-14T16:20:51.542Z,33.03
2023-05-14T16:23:18.567Z,32.58
2023-05-14T16:25:45.925Z,33.25
2023-05-14T16:28:14.110Z,34.04
2023-05-14T16:30:41.344Z,34.58
2023-05-14T16:33:10.487Z,34.99
2023-05-14T16:35:37.914Z,35.07
2023-05-14T16:38:05.102Z,35.33
2023-05-14T16:40:32.491Z,35.71
2023-05-14T16:42:59.717Z,35.38
2023-05-14T16:45:30.155Z,35.41
2023-05-14T16:47:57.531Z,35.91
2023-05-14T16:50:24.755Z,36.58
2023-05-14T16:52:52.161Z,36.82
2023-05-14T16:55:19.473Z,36.97
2023-05-14T16:57:46.637Z,36.86
2023-05-14T17:00:14.524Z,37.12
2023-05-14T17:02:41.930Z,37.31
2023-05-14T17:05:09.456Z,37.68
2023-05-14T17:07:38.020Z,38.08
2023-05-14T17:10:06.037Z,38.01
2023-05-14T17:12:33.224Z,38.36
2023-05-14T17:15:01.472Z,38.66
2023-05-14T17:17:29.967Z,39.33
2023-05-14T17:19:58.704Z,39.34
2023-05-14T17:22:26.186Z,40.01
2023-05-14T17:24:55.759Z,40.97
2023-05-14T17:27:22.780Z,40.25
2023-05-14T17:29:50.257Z,40.39
2023-05-14T17:32:18.116Z,40.56
2023-05-14T17:34:45.268Z,40.72
2023-05-14T17:37:16.867Z,40.58
2023-05-14T17:39:46.900Z,41.16
2023-05-14T17:42:13.981Z,41.17
2023-05-14T17:44:41.157Z,40.87
2023-05-14T17:47:08.551Z,40.49
2023-05-14T17:49:36.028Z,40.05
2023-05-14T17:52:03.526Z,39.87
2023-05-14T17:54:30.583Z,39.62
2023-05-14T17:56:57.847Z,39.80
2023-05-14T17:59:25.042Z,39.33
2023-05-14T18:01:52.317Z,39.66
2023-05-14T18:04:19.332Z,39.32
2023-05-14T18:06:46.495Z,39.46
2023-05-14T18:09:13.631Z,39.89
2023-05-14T18:11:40.855Z,38.95
2023-05-14T18:14:08.245Z,39.22
2023-05-14T18:16:36.628Z,39.17
2023-05-14T18:19:03.943Z,38.85
2023-05-14T18:21:31.141Z,39.40
2023-05-14T18:23:58.262Z,39.62
2023-05-14T18:26:25.397Z,39.62
2023-05-14T18:28:52.744Z,39.57
2023-05-14T18:31:20.484Z,39.86
2023-05-14T18:33:47.905Z,39.87
2023-05-14T18:36:15.226Z,40.54
2023-05-14T18:38:42.361Z,40.09
2023-05-14T18:41:09.560Z,40.61
2023-05-14T18:43:37.089Z,40.34
2023-05-14T18:46:04.371Z,39.91
2023-05-14T18:48:34.023Z,40.52
2023-05-14T18:51:01.413Z,40.25
2023-05-14T18:53:28.463Z,40.38
2023-05-14T18:55:55.724Z,41.02
2023-05-14T18:58:22.875Z,41.00
2023-05-14T19:00:50.186Z,41.32
2023-05-14T19:03:17.628Z,42.10
2023-05-14T19:05:45.035Z,41.94
2023-05-14T19:08:12.300Z,42.62
2023-05-14T19:10:39.494Z,42.48
2023-05-14T19:13:06.727Z,42.17
2023-05-14T19:15:33.942Z,42.61
2023-05-14T19:18:01.503Z,42.99
2023-05-14T19:20:28.690Z,42.51
2023-05-14T19:22:55.814Z,42.29
2023-05-14T19:25:22.930Z,42.47
2023-05-14T19:27:50.442Z,42.67
2023-05-14T19:30:18.489Z,42.76
2023-05-14T19:32:45.457Z,43.14
2023-05-14T19:35:12.503Z,43.50
2023-05-14T19:37:39.360Z,43.55
2023-05-14T19:40:07.031Z,43.71
2023-05-14T19:42:33.995Z,43.11
2023-05-14T19:45:00.931Z,43.26
2023-05-14T19:47:27.906Z,43.38
2023-05-14T19:49:55.095Z,43.20
2023-05-14T19:52:22.241Z,43.16
2023-05-14T19:54:49.214Z,43.54
2023-05-14T19:57:16.338Z,43.71
2023-05-14T19:59:43.318Z,42.97
2023-05-14T20:02:10.431Z,43.51
2023-05-14T20:04:37.431Z,43.36
2023-05-14T20:07:04.594Z,43.24
2023-05-14T20:09:31.651Z,43.65
2023-05-14T20:11:58.776Z,43.87
2023-05-14T20:14:25.816Z,43.99
2023-05-14T20:16:52.867Z,43.61
2023-05-14T20:19:20.376Z,43.96
2023-05-14T20:21:47.412Z,43.94
2023-05-14T20:24:14.329Z,44.72
2023-05-14T20:26:41.357Z,44.37
2023-05-14T20:29:08.270Z,44.79
2023-05-14T20:31:35.047Z,45.37
2023-05-14T20:34:02.138Z,45.77
2023-05-14T20:36:29.150Z,45.53
2023-05-14T20:38:56.711Z,46.38
2023-05-14T20:41:23.767Z,46.35
2023-05-14T20:43:50.708Z,46.90
2023-05-14T20:46:19.751Z,47.42
2023-05-14T20:48:47.442Z,47.36
2023-05-14T20:51:14.366Z,47.44
2023-05-14T20:53:41.155Z,47.70
2023-05-14T20:56:08.208Z,48.10
2023-05-14T20:58:35.445Z,48.37
2023-05-14T21:01:02.386Z,48.75
2023-05-14T21:03:29.607Z,49.32
2023-05-14T21:05:56.706Z,49.46
2023-05-14T21:08:23.632Z,49.57
2023-05-14T21:10:50.515Z,49.27
2023-05-14T21:13:17.405Z,49.52
2023-05-14T21:15:44.377Z,49.54
2023-05-14T21:18:13.694Z,50.14
2023-05-14T21:20:40.542Z,49.87
2023-05-14T21:23:07.458Z,50.09
2023-05-14T21:25:34.903Z,50.33
2023-05-14T21:28:01.776Z,50.89
2023-05-14T21:30:28.686Z,50.73
2023-05-14T21:32:55.793Z,51.35
2023-05-14T21:35:23.113Z,51.35
2023-05-14T21:37:50.346Z,51.92
2023-05-14T21:40:17.380Z,52.61
2023-05-14T21:42:44.497Z,52.75
2023-05-14T21:45:11.623Z,53.90
2023-05-14T21:47:38.915Z,54.12
2023-05-14T21:50:06.202Z,54.57
2023-05-14T21:52:33.241Z,55.08
2023-05-14T21:55:00.193Z,55.30
2023-05-14T21:57:28.387Z,55.77
2023-05-14T21:59:55.827Z,56.06
2023-05-14T22:02:23.077Z,56.57
2023-05-14T22:04:50.268Z,56.42
2023-05-14T22:07:17.270Z,56.82
2023-05-14T22:09:44.341Z,56.92
2023-05-14T22:12:11.919Z,57.05
2023-05-14T22:14:38.672Z,57.84
2023-05-14T22:17:05.625Z,57.98
2023-05-14T22:19:32.599Z,57.73
2023-05-14T22:21:59.453Z,57.75
2023-05-14T22:24:26.460Z,58.24
2023-05-14T22:26:53.270Z,58.37
2023-05-14T22:29:20.337Z,58.39
2023-05-14T22:31:50.154Z,58.21
2023-05-14T22:34:17.135Z,58.47
2023-05-14T22:36:44.268Z,58.37
2023-05-14T22:39:12.757Z,58.19
2023-05-14T22:41:40.410Z,58.24
2023-05-14T22:44:07.390Z,57.98
2023-05-14T22:46:34.486Z,58.12
2023-05-14T22:49:01.323Z,58.10
2023-05-14T22:51:28.281Z,57.94
2023-05-14T22:53:55.309Z,58.42
2023-05-14T22:56:22.183Z,58.50
2023-05-14T22:58:49.091Z,58.54
2023-05-14T23:01:16.056Z,58.34
2023-05-14T23:03:43.005Z,58.87
2023-05-14T23:06:09.851Z,58.48
2023-05-14T23:08:36.765Z,58.77
2023-05-14T23:11:03.610Z,59.22
2023-05-14T23:13:30.448Z,58.92
2023-05-14T23:15:57.510Z,59.13
2023-05-14T23:18:24.481Z,59.75
2023-05-14T23:20:51.410Z,59.98
2023-05-14T23:23:18.576Z,59.95
2023-05-14T23:25:45.475Z,60.54
2023-05-14T23:28:12.326Z,59.90
2023-05-14T23:30:39.371Z,60.27
2023-05-14T23:33:06.249Z,60.62
2023-05-14T23:35:33.630Z,60.95
2023-05-14T23:38:00.549Z,60.86
2023-05-14T23:40:27.750Z,60.90
2023-05-14T23:42:54.585Z,61.15
2023-05-14T23:45:21.552Z,61.26
2023-05-14T23:47:48.423Z,61.75
2023-05-14T23:50:15.376Z,62.04
2023-05-14T23:52:42.291Z,61.70
2023-05-14T23:55:09.616Z,62.01
2023-05-14T23:57:36.484Z,61.97
